sensor_id;sensor_type;location;lat;lon;timestamp;P1;durP1;ratioP1;P2;durP2;ratioP2
3815;SDS011;1923;48.154;11.536;2022-08-21T00:01:45;2.03;;;1.37;;
3815;SDS011;1923;48.154;11.536;2022-08-21T00:04:14;1.70;;;1.23;;
3815;SDS011;1923;48.154;11.536;2022-08-21T00:06:47;1.33;;;1.23;;
3815;SDS011;1923;48.154;11.536;2022-08-21T00:09:16;3.20;;;1.37;;
3815;SDS011;1923;48.154;11.536;2022-08-21T00:11:44;2.63;;;1.80;;
3815;SDS011;1923;48.154;11.536;2022-08-21T00:14:13;2.17;;;1.40;;
3815;SDS011;1923;48.154;11.536;2022-08-21T00:16:42;3.00;;;1.43;;
3815;SDS011;1923;48.154;11.536;2022-08-21T00:19:10;3.13;;;1.50;;
3815;SDS011;1923;48.154;11.536;2022-08-21T00:21:40;2.33;;;1.20;;
3815;SDS011;1923;48.154;11.536;2022-08-21T00:24:10;2.27;;;1.30;;
3815;SDS011;1923;48.154;11.536;2022-08-21T00:26:38;2.10;;;1.33;;
3815;SDS011;1923;48.154;11.536;2022-08-21T00:29:06;2.43;;;1.87;;
3815;SDS011;1923;48.154;11.536;2022-08-21T00:31:34;2.83;;;1.63;;
3815;SDS011;1923;48.154;11.536;2022-08-21T00:34:03;2.40;;;1.77;;
3815;SDS011;1923;48.154;11.536;2022-08-21T00:36:31;2.27;;;1.30;;
3815;SDS011;1923;48.154;11.536;2022-08-21T00:39:00;3.20;;;1.13;;
3815;SDS011;1923;48.154;11.536;2022-08-21T00:41:29;2.23;;;1.23;;
3815;SDS011;1923;48.154;11.536;2022-08-21T00:44:04;2.43;;;1.37;;
3815;SDS011;1923;48.154;11.536;2022-08-21T00:46:33;2.10;;;1.40;;
3815;SDS011;1923;48.154;11.536;2022-08-21T00:49:02;1.60;;;1.30;;
3815;SDS011;1923;48.154;11.536;2022-08-21T00:51:32;1.83;;;1.20;;
3815;SDS011;1923;48.154;11.536;2022-08-21T00:54:06;1.60;;;1.00;;
3815;SDS011;1923;48.154;11.536;2022-08-21T00:56:44;1.30;;;1.20;;
3815;SDS011;1923;48.154;11.536;2022-08-21T00:59:16;1.53;;;1.30;;
3815;SDS011;1923;48.154;11.536;2022-08-21T01:01:46;3.10;;;1.30;;
3815;SDS011;1923;48.154;11.536;2022-08-21T01:04:14;1.20;;;1.10;;
3815;SDS011;1923;48.154;11.536;2022-08-21T01:06:43;1.40;;;1.30;;
3815;SDS011;1923;48.154;11.536;2022-08-21T01:09:12;2.37;;;1.40;;
3815;SDS011;1923;48.154;11.536;2022-08-21T01:11:41;1.83;;;1.13;;
3815;SDS011;1923;48.154;11.536;2022-08-21T01:14:10;2.53;;;1.60;;
3815;SDS011;1923;48.154;11.536;2022-08-21T01:16:39;3.67;;;1.20;;
3815;SDS011;1923;48.154;11.536;2022-08-21T01:19:10;1.33;;;1.10;;
3815;SDS011;1923;48.154;11.536;2022-08-21T01:21:40;2.50;;;1.43;;
3815;SDS011;1923;48.154;11.536;2022-08-21T01:24:09;1.43;;;1.20;;
3815;SDS011;1923;48.154;11.536;2022-08-21T01:26:38;2.00;;;1.40;;
3815;SDS011;1923;48.154;11.536;2022-08-21T01:29:11;2.33;;;1.60;;
3815;SDS011;1923;48.154;11.536;2022-08-21T01:31:43;1.50;;;1.37;;
3815;SDS011;1923;48.154;11.536;2022-08-21T01:34:12;1.77;;;1.40;;
3815;SDS011;1923;48.154;11.536;2022-08-21T01:36:43;1.60;;;1.20;;
3815;SDS011;1923;48.154;11.536;2022-08-21T01:39:12;2.10;;;1.30;;
3815;SDS011;1923;48.154;11.536;2022-08-21T01:41:40;1.50;;;1.27;;
3815;SDS011;1923;48.154;11.536;2022-08-21T01:44:08;1.50;;;1.40;;
3815;SDS011;1923;48.154;11.536;2022-08-21T01:46:36;1.63;;;1.40;;
3815;SDS011;1923;48.154;11.536;2022-08-21T01:49:05;1.87;;;1.20;;
3815;SDS011;1923;48.154;11.536;2022-08-21T01:51:33;2.33;;;1.60;;
3815;SDS011;1923;48.154;11.536;2022-08-21T01:54:02;1.77;;;1.10;;
3815;SDS011;1923;48.154;11.536;2022-08-21T01:56:35;1.53;;;1.37;;
3815;SDS011;1923;48.154;11.536;2022-08-21T01:59:04;1.87;;;1.43;;
3815;SDS011;1923;48.154;11.536;2022-08-21T02:01:33;1.83;;;1.30;;
3815;SDS011;1923;48.154;11.536;2022-08-21T02:04:01;1.60;;;1.23;;
3815;SDS011;1923;48.154;11.536;2022-08-21T02:06:30;2.10;;;1.50;;
3815;SDS011;1923;48.154;11.536;2022-08-21T02:08:58;1.93;;;1.33;;
3815;SDS011;1923;48.154;11.536;2022-08-21T02:11:27;4.50;;;1.60;;
3815;SDS011;1923;48.154;11.536;2022-08-21T02:13:55;3.00;;;1.40;;
3815;SDS011;1923;48.154;11.536;2022-08-21T02:16:24;2.10;;;1.40;;
3815;SDS011;1923;48.154;11.536;2022-08-21T02:18:52;1.83;;;1.50;;
3815;SDS011;1923;48.154;11.536;2022-08-21T02:21:20;1.87;;;1.37;;
3815;SDS011;1923;48.154;11.536;2022-08-21T02:23:48;1.80;;;1.30;;
3815;SDS011;1923;48.154;11.536;2022-08-21T02:26:17;2.00;;;1.40;;
3815;SDS011;1923;48.154;11.536;2022-08-21T02:28:46;3.47;;;1.83;;
3815;SDS011;1923;48.154;11.536;2022-08-21T02:31:14;1.47;;;1.23;;
3815;SDS011;1923;48.154;11.536;2022-08-21T02:33:42;1.40;;;1.20;;
3815;SDS011;1923;48.154;11.536;2022-08-21T02:36:11;1.93;;;1.50;;
3815;SDS011;1923;48.154;11.536;2022-08-21T02:38:40;1.57;;;1.17;;
3815;SDS011;1923;48.154;11.536;2022-08-21T02:41:11;2.23;;;1.50;;
3815;SDS011;1923;48.154;11.536;2022-08-21T02:43:40;2.17;;;1.67;;
3815;SDS011;1923;48.154;11.536;2022-08-21T02:46:34;1.77;;;1.57;;
3815;SDS011;1923;48.154;11.536;2022-08-21T02:49:02;3.47;;;1.60;;
3815;SDS011;1923;48.154;11.536;2022-08-21T02:51:55;1.30;;;1.20;;
3815;SDS011;1923;48.154;11.536;2022-08-21T02:54:23;1.73;;;1.30;;
3815;SDS011;1923;48.154;11.536;2022-08-21T02:56:51;2.37;;;1.60;;
3815;SDS011;1923;48.154;11.536;2022-08-21T02:59:19;2.00;;;1.53;;
3815;SDS011;1923;48.154;11.536;2022-08-21T03:01:49;1.73;;;1.30;;
3815;SDS011;1923;48.154;11.536;2022-08-21T03:04:17;2.00;;;1.57;;
3815;SDS011;1923;48.154;11.536;2022-08-21T03:06:46;2.03;;;1.43;;
3815;SDS011;1923;48.154;11.536;2022-08-21T03:09:14;1.60;;;1.50;;
3815;SDS011;1923;48.154;11.536;2022-08-21T03:11:42;2.47;;;2.10;;
3815;SDS011;1923;48.154;11.536;2022-08-21T03:14:10;1.77;;;1.67;;
3815;SDS011;1923;48.154;11.536;2022-08-21T03:16:38;2.50;;;1.63;;
3815;SDS011;1923;48.154;11.536;2022-08-21T03:19:08;1.60;;;1.37;;
3815;SDS011;1923;48.154;11.536;2022-08-21T03:21:36;1.40;;;1.17;;
3815;SDS011;1923;48.154;11.536;2022-08-21T03:24:05;1.33;;;1.23;;
3815;SDS011;1923;48.154;11.536;2022-08-21T03:26:35;1.63;;;1.50;;
3815;SDS011;1923;48.154;11.536;2022-08-21T03:29:05;3.23;;;1.60;;
3815;SDS011;1923;48.154;11.536;2022-08-21T03:31:33;1.63;;;1.50;;
3815;SDS011;1923;48.154;11.536;2022-08-21T03:34:01;3.87;;;2.00;;
3815;SDS011;1923;48.154;11.536;2022-08-21T03:36:31;1.67;;;1.57;;
3815;SDS011;1923;48.154;11.536;2022-08-21T03:38:59;2.27;;;1.57;;
3815;SDS011;1923;48.154;11.536;2022-08-21T03:41:27;2.13;;;1.53;;
3815;SDS011;1923;48.154;11.536;2022-08-21T03:43:55;3.10;;;1.80;;
3815;SDS011;1923;48.154;11.536;2022-08-21T03:46:24;2.37;;;1.80;;
3815;SDS011;1923;48.154;11.536;2022-08-21T03:48:52;2.20;;;1.53;;
3815;SDS011;1923;48.154;11.536;2022-08-21T03:51:21;4.70;;;1.40;;
3815;SDS011;1923;48.154;11.536;2022-08-21T03:53:51;1.77;;;1.40;;
3815;SDS011;1923;48.154;11.536;2022-08-21T03:56:19;5.23;;;2.90;;
3815;SDS011;1923;48.154;11.536;2022-08-21T03:58:47;3.63;;;2.37;;
3815;SDS011;1923;48.154;11.536;2022-08-21T04:01:15;2.10;;;1.57;;
3815;SDS011;1923;48.154;11.536;2022-08-21T04:03:43;6.10;;;2.50;;
3815;SDS011;1923;48.154;11.536;2022-08-21T04:06:11;2.97;;;2.10;;
3815;SDS011;1923;48.154;11.536;2022-08-21T04:08:39;3.00;;;2.23;;
3815;SDS011;1923;48.154;11.536;2022-08-21T04:11:10;3.20;;;1.97;;
3815;SDS011;1923;48.154;11.536;2022-08-21T04:13:38;2.20;;;1.80;;
3815;SDS011;1923;48.154;11.536;2022-08-21T04:16:10;2.20;;;1.80;;
3815;SDS011;1923;48.154;11.536;2022-08-21T04:18:38;2.50;;;1.67;;
3815;SDS011;1923;48.154;11.536;2022-08-21T04:21:07;1.50;;;1.40;;
3815;SDS011;1923;48.154;11.536;2022-08-21T04:23:38;2.70;;;1.80;;
3815;SDS011;1923;48.154;11.536;2022-08-21T04:26:06;2.00;;;1.50;;
3815;SDS011;1923;48.154;11.536;2022-08-21T04:28:36;2.20;;;1.93;;
3815;SDS011;1923;48.154;11.536;2022-08-21T04:31:04;2.33;;;1.73;;
3815;SDS011;1923;48.154;11.536;2022-08-21T04:33:32;2.10;;;1.90;;
3815;SDS011;1923;48.154;11.536;2022-08-21T04:36:00;1.93;;;1.57;;
3815;SDS011;1923;48.154;11.536;2022-08-21T04:38:29;3.10;;;1.60;;
3815;SDS011;1923;48.154;11.536;2022-08-21T04:41:03;2.50;;;1.77;;
3815;SDS011;1923;48.154;11.536;2022-08-21T04:43:31;1.30;;;1.20;;
3815;SDS011;1923;48.154;11.536;2022-08-21T04:46:01;3.27;;;1.73;;
3815;SDS011;1923;48.154;11.536;2022-08-21T04:48:29;1.87;;;1.57;;
3815;SDS011;1923;48.154;11.536;2022-08-21T04:51:00;3.23;;;2.33;;
3815;SDS011;1923;48.154;11.536;2022-08-21T04:53:34;6.03;;;3.07;;
3815;SDS011;1923;48.154;11.536;2022-08-21T04:56:06;9.30;;;4.57;;
3815;SDS011;1923;48.154;11.536;2022-08-21T04:58:39;10.27;;;3.90;;
3815;SDS011;1923;48.154;11.536;2022-08-21T05:01:11;12.03;;;6.07;;
3815;SDS011;1923;48.154;11.536;2022-08-21T05:03:43;38.50;;;17.67;;
3815;SDS011;1923;48.154;11.536;2022-08-21T05:06:12;21.87;;;10.50;;
3815;SDS011;1923;48.154;11.536;2022-08-21T05:08:43;60.13;;;23.70;;
3815;SDS011;1923;48.154;11.536;2022-08-21T05:11:14;29.27;;;12.53;;
3815;SDS011;1923;48.154;11.536;2022-08-21T05:13:42;20.87;;;9.33;;
3815;SDS011;1923;48.154;11.536;2022-08-21T05:16:12;5.80;;;4.07;;
3815;SDS011;1923;48.154;11.536;2022-08-21T05:19:00;4.33;;;2.77;;
3815;SDS011;1923;48.154;11.536;2022-08-21T05:21:28;3.90;;;2.67;;
3815;SDS011;1923;48.154;11.536;2022-08-21T05:23:58;4.73;;;3.00;;
3815;SDS011;1923;48.154;11.536;2022-08-21T05:26:26;3.77;;;2.10;;
3815;SDS011;1923;48.154;11.536;2022-08-21T05:28:54;2.23;;;1.57;;
3815;SDS011;1923;48.154;11.536;2022-08-21T05:31:24;4.50;;;2.40;;
3815;SDS011;1923;48.154;11.536;2022-08-21T05:33:52;3.00;;;1.70;;
3815;SDS011;1923;48.154;11.536;2022-08-21T05:36:21;1.90;;;1.50;;
3815;SDS011;1923;48.154;11.536;2022-08-21T05:38:49;3.73;;;2.00;;
3815;SDS011;1923;48.154;11.536;2022-08-21T05:41:18;2.93;;;1.70;;
3815;SDS011;1923;48.154;11.536;2022-08-21T05:43:46;1.50;;;1.40;;
3815;SDS011;1923;48.154;11.536;2022-08-21T05:46:14;2.90;;;1.67;;
3815;SDS011;1923;48.154;11.536;2022-08-21T05:48:44;3.07;;;1.80;;
3815;SDS011;1923;48.154;11.536;2022-08-21T05:51:13;2.80;;;1.40;;
3815;SDS011;1923;48.154;11.536;2022-08-21T05:53:42;2.30;;;1.77;;
3815;SDS011;1923;48.154;11.536;2022-08-21T05:56:11;2.40;;;1.87;;
3815;SDS011;1923;48.154;11.536;2022-08-21T05:58:40;1.60;;;1.50;;
3815;SDS011;1923;48.154;11.536;2022-08-21T06:01:09;2.10;;;1.33;;
3815;SDS011;1923;48.154;11.536;2022-08-21T06:03:38;1.90;;;1.63;;
3815;SDS011;1923;48.154;11.536;2022-08-21T06:06:09;2.00;;;1.43;;
3815;SDS011;1923;48.154;11.536;2022-08-21T06:08:37;3.40;;;1.63;;
3815;SDS011;1923;48.154;11.536;2022-08-21T06:11:05;3.13;;;1.73;;
3815;SDS011;1923;48.154;11.536;2022-08-21T06:13:34;2.20;;;1.27;;
3815;SDS011;1923;48.154;11.536;2022-08-21T06:16:04;1.40;;;1.20;;
3815;SDS011;1923;48.154;11.536;2022-08-21T06:18:34;2.00;;;1.50;;
3815;SDS011;1923;48.154;11.536;2022-08-21T06:21:03;0.80;;;0.80;;
3815;SDS011;1923;48.154;11.536;2022-08-21T06:23:33;1.40;;;1.20;;
3815;SDS011;1923;48.154;11.536;2022-08-21T06:26:02;2.33;;;1.30;;
3815;SDS011;1923;48.154;11.536;2022-08-21T06:28:32;1.77;;;1.40;;
3815;SDS011;1923;48.154;11.536;2022-08-21T06:31:01;3.23;;;1.50;;
3815;SDS011;1923;48.154;11.536;2022-08-21T06:33:36;1.67;;;1.33;;
3815;SDS011;1923;48.154;11.536;2022-08-21T06:36:05;1.27;;;1.10;;
3815;SDS011;1923;48.154;11.536;2022-08-21T06:38:34;1.83;;;1.30;;
3815;SDS011;1923;48.154;11.536;2022-08-21T06:41:04;4.93;;;1.23;;
3815;SDS011;1923;48.154;11.536;2022-08-21T06:43:35;4.60;;;1.40;;
3815;SDS011;1923;48.154;11.536;2022-08-21T06:46:05;1.43;;;1.33;;
3815;SDS011;1923;48.154;11.536;2022-08-21T06:48:33;1.07;;;0.97;;
3815;SDS011;1923;48.154;11.536;2022-08-21T06:51:02;3.10;;;1.90;;
3815;SDS011;1923;48.154;11.536;2022-08-21T06:53:30;1.93;;;1.03;;
3815;SDS011;1923;48.154;11.536;2022-08-21T06:56:00;1.60;;;1.20;;
3815;SDS011;1923;48.154;11.536;2022-08-21T06:58:28;2.60;;;1.47;;
3815;SDS011;1923;48.154;11.536;2022-08-21T07:00:57;1.47;;;0.90;;
3815;SDS011;1923;48.154;11.536;2022-08-21T07:03:27;1.10;;;0.97;;
3815;SDS011;1923;48.154;11.536;2022-08-21T07:05:57;1.77;;;1.30;;
3815;SDS011;1923;48.154;11.536;2022-08-21T07:08:25;1.90;;;1.33;;
3815;SDS011;1923;48.154;11.536;2022-08-21T07:10:55;1.80;;;1.13;;
3815;SDS011;1923;48.154;11.536;2022-08-21T07:13:27;2.40;;;1.27;;
3815;SDS011;1923;48.154;11.536;2022-08-21T07:15:55;2.70;;;1.73;;
3815;SDS011;1923;48.154;11.536;2022-08-21T07:18:29;1.73;;;1.30;;
3815;SDS011;1923;48.154;11.536;2022-08-21T07:20:57;3.33;;;1.60;;
3815;SDS011;1923;48.154;11.536;2022-08-21T07:23:26;2.40;;;1.50;;
3815;SDS011;1923;48.154;11.536;2022-08-21T07:26:00;4.00;;;1.73;;
3815;SDS011;1923;48.154;11.536;2022-08-21T07:28:31;2.90;;;2.20;;
3815;SDS011;1923;48.154;11.536;2022-08-21T07:31:00;3.37;;;2.10;;
3815;SDS011;1923;48.154;11.536;2022-08-21T07:33:29;3.53;;;1.70;;
3815;SDS011;1923;48.154;11.536;2022-08-21T07:35:59;4.10;;;1.67;;
3815;SDS011;1923;48.154;11.536;2022-08-21T07:38:27;1.83;;;1.40;;
3815;SDS011;1923;48.154;11.536;2022-08-21T07:40:55;2.90;;;1.40;;
3815;SDS011;1923;48.154;11.536;2022-08-21T07:43:25;4.57;;;2.07;;
3815;SDS011;1923;48.154;11.536;2022-08-21T07:45:54;2.50;;;1.57;;
3815;SDS011;1923;48.154;11.536;2022-08-21T07:48:23;6.20;;;1.53;;
3815;SDS011;1923;48.154;11.536;2022-08-21T07:50:51;2.30;;;1.60;;
3815;SDS011;1923;48.154;11.536;2022-08-21T07:53:21;2.07;;;1.63;;
3815;SDS011;1923;48.154;11.536;2022-08-21T07:55:49;3.47;;;2.30;;
3815;SDS011;1923;48.154;11.536;2022-08-21T07:58:17;1.70;;;1.50;;
3815;SDS011;1923;48.154;11.536;2022-08-21T08:00:45;2.77;;;1.93;;
3815;SDS011;1923;48.154;11.536;2022-08-21T08:03:15;2.83;;;1.63;;
3815;SDS011;1923;48.154;11.536;2022-08-21T08:05:54;4.30;;;2.10;;
3815;SDS011;1923;48.154;11.536;2022-08-21T08:08:22;3.20;;;1.90;;
3815;SDS011;1923;48.154;11.536;2022-08-21T08:10:51;2.70;;;2.37;;
3815;SDS011;1923;48.154;11.536;2022-08-21T08:13:20;2.87;;;2.27;;
3815;SDS011;1923;48.154;11.536;2022-08-21T08:15:48;4.03;;;2.23;;
3815;SDS011;1923;48.154;11.536;2022-08-21T08:18:17;1.90;;;1.70;;
3815;SDS011;1923;48.154;11.536;2022-08-21T08:20:45;2.50;;;2.07;;
3815;SDS011;1923;48.154;11.536;2022-08-21T08:23:13;3.30;;;2.10;;
3815;SDS011;1923;48.154;11.536;2022-08-21T08:25:42;4.13;;;2.00;;
3815;SDS011;1923;48.154;11.536;2022-08-21T08:28:10;2.47;;;1.90;;
3815;SDS011;1923;48.154;11.536;2022-08-21T08:30:43;2.87;;;2.10;;
3815;SDS011;1923;48.154;11.536;2022-08-21T08:33:12;2.93;;;2.27;;
3815;SDS011;1923;48.154;11.536;2022-08-21T08:35:42;7.17;;;2.00;;
3815;SDS011;1923;48.154;11.536;2022-08-21T08:38:13;2.90;;;2.40;;
3815;SDS011;1923;48.154;11.536;2022-08-21T08:40:47;2.57;;;2.07;;
3815;SDS011;1923;48.154;11.536;2022-08-21T08:43:21;2.93;;;1.77;;
3815;SDS011;1923;48.154;11.536;2022-08-21T08:45:50;3.83;;;1.80;;
3815;SDS011;1923;48.154;11.536;2022-08-21T08:48:26;4.60;;;1.60;;
3815;SDS011;1923;48.154;11.536;2022-08-21T08:51:08;2.77;;;2.10;;
3815;SDS011;1923;48.154;11.536;2022-08-21T08:53:47;4.87;;;2.60;;
3815;SDS011;1923;48.154;11.536;2022-08-21T08:56:22;2.87;;;2.20;;
3815;SDS011;1923;48.154;11.536;2022-08-21T08:58:56;3.10;;;2.37;;
3815;SDS011;1923;48.154;11.536;2022-08-21T09:01:29;3.60;;;2.30;;
3815;SDS011;1923;48.154;11.536;2022-08-21T09:04:03;2.47;;;2.13;;
3815;SDS011;1923;48.154;11.536;2022-08-21T09:06:36;3.50;;;2.43;;
3815;SDS011;1923;48.154;11.536;2022-08-21T09:09:17;3.07;;;2.33;;
3815;SDS011;1923;48.154;11.536;2022-08-21T09:11:52;2.40;;;1.90;;
3815;SDS011;1923;48.154;11.536;2022-08-21T09:14:30;2.60;;;2.13;;
3815;SDS011;1923;48.154;11.536;2022-08-21T09:17:17;2.83;;;2.10;;
3815;SDS011;1923;48.154;11.536;2022-08-21T09:19:57;2.90;;;2.23;;
3815;SDS011;1923;48.154;11.536;2022-08-21T09:22:39;4.80;;;2.10;;
3815;SDS011;1923;48.154;11.536;2022-08-21T09:25:15;3.63;;;2.10;;
3815;SDS011;1923;48.154;11.536;2022-08-21T09:27:49;2.03;;;1.83;;
3815;SDS011;1923;48.154;11.536;2022-08-21T09:30:18;2.37;;;2.10;;
3815;SDS011;1923;48.154;11.536;2022-08-21T09:32:51;2.70;;;2.10;;
3815;SDS011;1923;48.154;11.536;2022-08-21T09:35:19;2.20;;;2.00;;
3815;SDS011;1923;48.154;11.536;2022-08-21T09:37:53;1.90;;;1.67;;
3815;SDS011;1923;48.154;11.536;2022-08-21T09:40:33;3.07;;;2.07;;
3815;SDS011;1923;48.154;11.536;2022-08-21T09:43:05;3.80;;;2.27;;
3815;SDS011;1923;48.154;11.536;2022-08-21T09:45:42;2.67;;;1.77;;
3815;SDS011;1923;48.154;11.536;2022-08-21T09:48:13;2.90;;;2.53;;
3815;SDS011;1923;48.154;11.536;2022-08-21T09:50:42;3.57;;;2.13;;
3815;SDS011;1923;48.154;11.536;2022-08-21T09:53:17;2.40;;;1.50;;
3815;SDS011;1923;48.154;11.536;2022-08-21T09:55:49;3.17;;;2.30;;
3815;SDS011;1923;48.154;11.536;2022-08-21T09:58:37;4.50;;;2.27;;
3815;SDS011;1923;48.154;11.536;2022-08-21T10:01:12;3.70;;;2.47;;
3815;SDS011;1923;48.154;11.536;2022-08-21T10:03:42;2.40;;;1.80;;
3815;SDS011;1923;48.154;11.536;2022-08-21T10:06:19;3.20;;;2.30;;
3815;SDS011;1923;48.154;11.536;2022-08-21T10:09:02;3.27;;;2.47;;
3815;SDS011;1923;48.154;11.536;2022-08-21T10:11:33;3.00;;;2.17;;
3815;SDS011;1923;48.154;11.536;2022-08-21T10:14:05;3.47;;;2.37;;
3815;SDS011;1923;48.154;11.536;2022-08-21T10:16:44;3.00;;;2.10;;
3815;SDS011;1923;48.154;11.536;2022-08-21T10:19:23;3.00;;;1.60;;
3815;SDS011;1923;48.154;11.536;2022-08-21T10:21:59;3.43;;;1.83;;
3815;SDS011;1923;48.154;11.536;2022-08-21T10:24:37;3.47;;;2.20;;
3815;SDS011;1923;48.154;11.536;2022-08-21T10:27:14;2.47;;;1.87;;
3815;SDS011;1923;48.154;11.536;2022-08-21T10:29:55;4.80;;;2.07;;
3815;SDS011;1923;48.154;11.536;2022-08-21T10:32:29;2.90;;;2.27;;
3815;SDS011;1923;48.154;11.536;2022-08-21T10:35:18;2.23;;;2.03;;
3815;SDS011;1923;48.154;11.536;2022-08-21T10:37:58;2.83;;;2.37;;
3815;SDS011;1923;48.154;11.536;2022-08-21T10:41:07;3.40;;;2.30;;
3815;SDS011;1923;48.154;11.536;2022-08-21T10:43:43;2.10;;;1.90;;
3815;SDS011;1923;48.154;11.536;2022-08-21T10:46:24;3.20;;;1.97;;
3815;SDS011;1923;48.154;11.536;2022-08-21T10:49:20;1.70;;;1.53;;
3815;SDS011;1923;48.154;11.536;2022-08-21T10:51:55;2.67;;;1.97;;
3815;SDS011;1923;48.154;11.536;2022-08-21T10:54:33;1.13;;;1.00;;
3815;SDS011;1923;48.154;11.536;2022-08-21T10:57:21;1.57;;;1.27;;
3815;SDS011;1923;48.154;11.536;2022-08-21T11:00:00;1.37;;;1.23;;
3815;SDS011;1923;48.154;11.536;2022-08-21T11:02:40;1.90;;;1.43;;
3815;SDS011;1923;48.154;11.536;2022-08-21T11:05:12;1.57;;;1.27;;
3815;SDS011;1923;48.154;11.536;2022-08-21T11:07:45;2.27;;;1.60;;
3815;SDS011;1923;48.154;11.536;2022-08-21T11:10:19;2.43;;;2.10;;
3815;SDS011;1923;48.154;11.536;2022-08-21T11:12:54;2.30;;;2.00;;
3815;SDS011;1923;48.154;11.536;2022-08-21T11:15:27;2.30;;;2.00;;
3815;SDS011;1923;48.154;11.536;2022-08-21T11:18:04;3.20;;;1.70;;
3815;SDS011;1923;48.154;11.536;2022-08-21T11:20:43;3.60;;;2.13;;
3815;SDS011;1923;48.154;11.536;2022-08-21T11:23:21;2.37;;;1.70;;
3815;SDS011;1923;48.154;11.536;2022-08-21T11:25:55;2.70;;;2.17;;
3815;SDS011;1923;48.154;11.536;2022-08-21T11:28:31;3.07;;;2.60;;
3815;SDS011;1923;48.154;11.536;2022-08-21T11:31:05;3.17;;;2.40;;
3815;SDS011;1923;48.154;11.536;2022-08-21T11:33:48;5.13;;;2.70;;
3815;SDS011;1923;48.154;11.536;2022-08-21T11:36:28;3.80;;;2.20;;
3815;SDS011;1923;48.154;11.536;2022-08-21T11:39:02;3.27;;;2.33;;
3815;SDS011;1923;48.154;11.536;2022-08-21T11:41:36;2.97;;;1.87;;
3815;SDS011;1923;48.154;11.536;2022-08-21T11:44:11;2.20;;;1.57;;
3815;SDS011;1923;48.154;11.536;2022-08-21T11:46:47;2.47;;;2.07;;
3815;SDS011;1923;48.154;11.536;2022-08-21T11:49:31;3.43;;;1.87;;
3815;SDS011;1923;48.154;11.536;2022-08-21T11:52:12;1.87;;;1.40;;
3815;SDS011;1923;48.154;11.536;2022-08-21T11:54:46;2.10;;;1.40;;
3815;SDS011;1923;48.154;11.536;2022-08-21T11:57:18;2.43;;;2.00;;
3815;SDS011;1923;48.154;11.536;2022-08-21T11:59:52;2.60;;;2.30;;
3815;SDS011;1923;48.154;11.536;2022-08-21T12:02:24;1.90;;;1.70;;
3815;SDS011;1923;48.154;11.536;2022-08-21T12:04:59;5.00;;;1.83;;
3815;SDS011;1923;48.154;11.536;2022-08-21T12:07:35;4.20;;;1.90;;
3815;SDS011;1923;48.154;11.536;2022-08-21T12:10:07;2.13;;;1.40;;
3815;SDS011;1923;48.154;11.536;2022-08-21T12:12:38;2.40;;;2.10;;
3815;SDS011;1923;48.154;11.536;2022-08-21T12:15:15;3.63;;;1.80;;
3815;SDS011;1923;48.154;11.536;2022-08-21T12:17:52;2.60;;;1.70;;
3815;SDS011;1923;48.154;11.536;2022-08-21T12:20:25;3.10;;;1.30;;
3815;SDS011;1923;48.154;11.536;2022-08-21T12:23:04;2.07;;;1.77;;
3815;SDS011;1923;48.154;11.536;2022-08-21T12:25:42;2.37;;;1.80;;
3815;SDS011;1923;48.154;11.536;2022-08-21T12:28:15;3.30;;;1.57;;
3815;SDS011;1923;48.154;11.536;2022-08-21T12:30:52;4.40;;;1.90;;
3815;SDS011;1923;48.154;11.536;2022-08-21T12:33:24;2.17;;;1.60;;
3815;SDS011;1923;48.154;11.536;2022-08-21T12:36:01;3.23;;;1.73;;
3815;SDS011;1923;48.154;11.536;2022-08-21T12:38:33;3.80;;;2.00;;
3815;SDS011;1923;48.154;11.536;2022-08-21T12:41:12;1.73;;;1.43;;
3815;SDS011;1923;48.154;11.536;2022-08-21T12:43:46;1.93;;;1.30;;
3815;SDS011;1923;48.154;11.536;2022-08-21T12:46:25;2.70;;;1.60;;
3815;SDS011;1923;48.154;11.536;2022-08-21T12:48:59;2.00;;;1.50;;
3815;SDS011;1923;48.154;11.536;2022-08-21T12:51:37;2.47;;;1.93;;
3815;SDS011;1923;48.154;11.536;2022-08-21T12:54:22;2.53;;;1.77;;
3815;SDS011;1923;48.154;11.536;2022-08-21T12:56:56;1.83;;;1.60;;
3815;SDS011;1923;48.154;11.536;2022-08-21T12:59:26;2.60;;;1.90;;
3815;SDS011;1923;48.154;11.536;2022-08-21T13:01:56;4.83;;;2.60;;
3815;SDS011;1923;48.154;11.536;2022-08-21T13:04:32;3.87;;;2.13;;
3815;SDS011;1923;48.154;11.536;2022-08-21T13:07:05;2.50;;;1.70;;
3815;SDS011;1923;48.154;11.536;2022-08-21T13:09:39;2.57;;;2.00;;
3815;SDS011;1923;48.154;11.536;2022-08-21T13:12:14;2.40;;;1.57;;
3815;SDS011;1923;48.154;11.536;2022-08-21T13:14:47;1.73;;;1.33;;
3815;SDS011;1923;48.154;11.536;2022-08-21T13:17:19;2.57;;;1.87;;
3815;SDS011;1923;48.154;11.536;2022-08-21T13:19:57;2.13;;;1.93;;
3815;SDS011;1923;48.154;11.536;2022-08-21T13:22:27;2.87;;;2.00;;
3815;SDS011;1923;48.154;11.536;2022-08-21T13:25:00;2.60;;;1.80;;
3815;SDS011;1923;48.154;11.536;2022-08-21T13:27:32;4.03;;;2.40;;
3815;SDS011;1923;48.154;11.536;2022-08-21T13:30:06;3.33;;;1.57;;
3815;SDS011;1923;48.154;11.536;2022-08-21T13:32:38;3.17;;;2.30;;
3815;SDS011;1923;48.154;11.536;2022-08-21T13:35:13;2.60;;;1.83;;
3815;SDS011;1923;48.154;11.536;2022-08-21T13:37:46;3.73;;;2.30;;
3815;SDS011;1923;48.154;11.536;2022-08-21T13:40:18;3.47;;;1.97;;
3815;SDS011;1923;48.154;11.536;2022-08-21T13:42:50;3.93;;;1.67;;
3815;SDS011;1923;48.154;11.536;2022-08-21T13:45:22;3.27;;;2.27;;
3815;SDS011;1923;48.154;11.536;2022-08-21T13:47:53;1.50;;;1.30;;
3815;SDS011;1923;48.154;11.536;2022-08-21T13:50:23;2.70;;;1.60;;
3815;SDS011;1923;48.154;11.536;2022-08-21T13:52:57;3.50;;;1.87;;
3815;SDS011;1923;48.154;11.536;2022-08-21T13:55:35;1.47;;;1.33;;
3815;SDS011;1923;48.154;11.536;2022-08-21T13:58:05;2.80;;;1.87;;
3815;SDS011;1923;48.154;11.536;2022-08-21T14:00:35;2.70;;;1.87;;
3815;SDS011;1923;48.154;11.536;2022-08-21T14:03:13;1.83;;;1.70;;
3815;SDS011;1923;48.154;11.536;2022-08-21T14:05:54;2.50;;;1.80;;
3815;SDS011;1923;48.154;11.536;2022-08-21T14:08:27;3.00;;;2.10;;
3815;SDS011;1923;48.154;11.536;2022-08-21T14:10:59;2.67;;;1.73;;
3815;SDS011;1923;48.154;11.536;2022-08-21T14:13:36;4.70;;;1.73;;
3815;SDS011;1923;48.154;11.536;2022-08-21T14:16:12;1.70;;;1.50;;
3815;SDS011;1923;48.154;11.536;2022-08-21T14:18:50;4.63;;;1.90;;
3815;SDS011;1923;48.154;11.536;2022-08-21T14:21:24;2.53;;;1.60;;
3815;SDS011;1923;48.154;11.536;2022-08-21T14:24:04;7.23;;;1.70;;
3815;SDS011;1923;48.154;11.536;2022-08-21T14:26:41;2.07;;;1.47;;
3815;SDS011;1923;48.154;11.536;2022-08-21T14:29:13;2.27;;;1.50;;
3815;SDS011;1923;48.154;11.536;2022-08-21T14:31:43;2.20;;;1.60;;
3815;SDS011;1923;48.154;11.536;2022-08-21T14:34:21;2.30;;;1.60;;
3815;SDS011;1923;48.154;11.536;2022-08-21T14:36:51;2.10;;;1.60;;
3815;SDS011;1923;48.154;11.536;2022-08-21T14:39:20;2.00;;;1.77;;
3815;SDS011;1923;48.154;11.536;2022-08-21T14:41:48;2.93;;;2.23;;
3815;SDS011;1923;48.154;11.536;2022-08-21T14:44:17;2.33;;;1.70;;
3815;SDS011;1923;48.154;11.536;2022-08-21T14:46:46;2.23;;;1.80;;
3815;SDS011;1923;48.154;11.536;2022-08-21T14:49:23;2.10;;;1.40;;
3815;SDS011;1923;48.154;11.536;2022-08-21T14:51:53;2.40;;;1.80;;
3815;SDS011;1923;48.154;11.536;2022-08-21T14:54:24;3.50;;;2.00;;
3815;SDS011;1923;48.154;11.536;2022-08-21T14:56:57;5.60;;;2.40;;
3815;SDS011;1923;48.154;11.536;2022-08-21T14:59:28;1.97;;;1.53;;
3815;SDS011;1923;48.154;11.536;2022-08-21T15:01:58;5.63;;;2.37;;
3815;SDS011;1923;48.154;11.536;2022-08-21T15:04:27;4.57;;;2.13;;
3815;SDS011;1923;48.154;11.536;2022-08-21T15:06:55;2.20;;;1.70;;
3815;SDS011;1923;48.154;11.536;2022-08-21T15:09:24;3.57;;;2.13;;
3815;SDS011;1923;48.154;11.536;2022-08-21T15:11:52;3.70;;;2.07;;
3815;SDS011;1923;48.154;11.536;2022-08-21T15:14:24;4.33;;;2.70;;
3815;SDS011;1923;48.154;11.536;2022-08-21T15:16:54;3.90;;;2.10;;
3815;SDS011;1923;48.154;11.536;2022-08-21T15:19:22;2.80;;;2.00;;
3815;SDS011;1923;48.154;11.536;2022-08-21T15:21:52;3.80;;;2.10;;
3815;SDS011;1923;48.154;11.536;2022-08-21T15:24:20;3.10;;;2.30;;
3815;SDS011;1923;48.154;11.536;2022-08-21T15:26:48;2.30;;;1.43;;
3815;SDS011;1923;48.154;11.536;2022-08-21T15:29:17;2.70;;;1.77;;